Time;durP1;ratioP1;P1;durP2;ratioP2;P2;SDS_P1;SDS_P2;PMS_P1;PMS_P2;Temp;Humidity;BMP_temperature;BMP_pressure;BME280_temperature;BME280_humidity;BME280_pressure;Samples;Min_cycle;Max_cycle;Signal;HPM_P1;HPM_P2
2023/05/10 00:01:55;;;;;;;17.20;8.10;;;;;;;;;;6250992;22;20011;-91
2023/05/10 00:04:21;;;;;;;22.27;9.40;;;;;;;;;;6254660;22;20015;-90
2023/05/10 00:06:48;;;;;;;25.00;10.07;;;;;;;;;;6278257;22;20011;-90
2023/05/10 00:09:15;;;;;;;21.50;9.30;;;;;;;;;;6280664;22;20012;-91
2023/05/10 00:11:41;;;;;;;29.23;10.98;;;;;;;;;;6250735;22;20018;-91
2023/05/10 00:14:07;;;;;;;14.60;7.00;;;;;;;;;;6249932;22;20023;-91
2023/05/10 00:16:33;;;;;;;23.60;9.60;;;;;;;;;;6275847;22;20008;-90
2023/05/10 00:19:15;;;;;;;32.88;10.70;;;;;;;;;;6249690;22;20047;-90
2023/05/10 00:21:41;;;;;;;25.85;11.25;;;;;;;;;;6273247;22;20458;-89
2023/05/10 00:24:17;;;;;;;35.30;11.68;;;;;;;;;;6276489;22;20015;-90
2023/05/10 00:26:43;;;;;;;30.88;11.90;;;;;;;;;;6255590;22;20031;-91
2023/05/10 00:29:10;;;;;;;27.67;10.98;;;;;;;;;;6275089;22;20422;-91
2023/05/10 00:31:59;;;;;;;31.42;11.35;;;;;;;;;;6283262;22;20008;-91
2023/05/10 00:34:29;;;;;;;28.08;9.90;;;;;;;;;;6266004;22;20062;-90
2023/05/10 00:37:09;;;;;;;28.38;10.07;;;;;;;;;;6278735;22;20246;-90
2023/05/10 00:39:39;;;;;;;24.08;8.32;;;;;;;;;;6261445;22;20016;-91
2023/05/10 00:42:06;;;;;;;26.17;9.85;;;;;;;;;;6282944;22;20035;-90
2023/05/10 00:44:34;;;;;;;21.73;9.18;;;;;;;;;;6280413;22;20007;-90
2023/05/10 00:47:03;;;;;;;17.52;9.02;;;;;;;;;;6258282;22;20035;-90
2023/05/10 00:49:29;;;;;;;22.58;8.07;;;;;;;;;;6256018;22;20399;-90
2023/05/10 00:51:55;;;;;;;31.02;9.90;;;;;;;;;;6255933;22;20018;-90
2023/05/10 00:54:21;;;;;;;21.77;8.60;;;;;;;;;;6260065;22;20013;-91
2023/05/10 00:56:52;;;;;;;25.40;9.52;;;;;;;;;;6255031;22;20022;-89
2023/05/10 00:59:25;;;;;;;25.08;9.18;;;;;;;;;;6260603;22;20008;-89
2023/05/10 01:01:54;;;;;;;22.67;8.40;;;;;;;;;;6279885;22;20073;-90
2023/05/10 01:04:25;;;;;;;19.95;7.43;;;;;;;;;;6274089;22;20020;-90
2023/05/10 01:07:01;;;;;;;17.15;7.15;;;;;;;;;;6278112;22;20607;-90
2023/05/10 01:09:27;;;;;;;22.08;7.63;;;;;;;;;;6275474;22;20008;-90
2023/05/10 01:11:55;;;;;;;16.63;6.07;;;;;;;;;;6248828;22;20038;-91
2023/05/10 01:14:22;;;;;;;22.50;7.55;;;;;;;;;;6279378;22;20053;-91
2023/05/10 01:16:49;;;;;;;21.02;7.90;;;;;;;;;;6277310;22;20004;-90
2023/05/10 01:19:22;;;;;;;25.08;8.40;;;;;;;;;;6276003;22;20479;-90
2023/05/10 01:21:56;;;;;;;17.75;7.20;;;;;;;;;;6279161;22;20015;-90
2023/05/10 01:24:41;;;;;;;21.13;8.95;;;;;;;;;;6276978;22;20022;-89
2023/05/10 01:27:08;;;;;;;22.02;7.70;;;;;;;;;;6273216;22;20018;-90
2023/05/10 01:29:52;;;;;;;22.52;7.60;;;;;;;;;;6276441;22;20064;-90
2023/05/10 01:32:42;;;;;;;23.38;9.38;;;;;;;;;;6277357;22;20038;-90
2023/05/10 01:35:18;;;;;;;29.15;9.98;;;;;;;;;;6256095;22;20035;-91
2023/05/10 01:37:51;;;;;;;15.45;6.20;;;;;;;;;;6281725;22;20004;-91
2023/05/10 01:40:24;;;;;;;28.85;9.52;;;;;;;;;;6280121;22;20015;-90
2023/05/10 01:42:55;;;;;;;29.25;9.80;;;;;;;;;;6282703;22;20011;-90
2023/05/10 01:45:22;;;;;;;28.48;10.85;;;;;;;;;;6278834;22;20011;-91
2023/05/10 01:47:51;;;;;;;33.50;10.80;;;;;;;;;;6277363;22;20087;-90
2023/05/10 01:50:19;;;;;;;37.85;10.73;;;;;;;;;;6278623;22;20454;-91
2023/05/10 01:52:48;;;;;;;32.67;10.35;;;;;;;;;;6280199;22;20284;-88
2023/05/10 01:55:20;;;;;;;28.08;9.98;;;;;;;;;;6280922;22;20044;-90
2023/05/10 01:57:48;;;;;;;29.30;10.00;;;;;;;;;;6276977;22;20008;-90
2023/05/10 02:00:15;;;;;;;21.92;9.68;;;;;;;;;;6281403;22;20229;-90
2023/05/10 02:02:54;;;;;;;23.33;9.63;;;;;;;;;;6283207;22;20004;-90
2023/05/10 02:05:22;;;;;;;28.45;10.60;;;;;;;;;;6279332;22;20023;-90
2023/05/10 02:07:48;;;;;;;32.00;10.68;;;;;;;;;;6252884;22;20035;-90
2023/05/10 02:10:15;;;;;;;26.55;9.70;;;;;;;;;;6251538;22;20003;-90
2023/05/10 02:12:52;;;;;;;30.27;12.00;;;;;;;;;;6251263;22;20008;-92
2023/05/10 02:15:22;;;;;;;30.98;10.82;;;;;;;;;;6276550;22;20026;-91
2023/05/10 02:17:49;;;;;;;24.30;10.80;;;;;;;;;;6276322;22;20239;-92
2023/05/10 02:20:17;;;;;;;27.17;9.98;;;;;;;;;;6277574;22;20381;-91
2023/05/10 02:22:47;;;;;;;29.80;9.95;;;;;;;;;;6276617;22;20011;-90
2023/05/10 02:25:15;;;;;;;25.02;10.18;;;;;;;;;;6275788;22;20023;-90
2023/05/10 02:27:45;;;;;;;30.02;10.35;;;;;;;;;;6280182;22;20350;-90
2023/05/10 02:30:15;;;;;;;29.80;10.75;;;;;;;;;;6279114;22;20046;-90
2023/05/10 02:32:42;;;;;;;29.67;9.30;;;;;;;;;;6251944;22;20406;-90
2023/05/10 02:35:10;;;;;;;24.98;10.40;;;;;;;;;;6249934;22;20022;-90
2023/05/10 02:37:37;;;;;;;26.17;8.73;;;;;;;;;;6277393;22;20039;-91
2023/05/10 02:40:05;;;;;;;29.55;10.80;;;;;;;;;;6280225;22;20010;-91
2023/05/10 02:42:35;;;;;;;31.42;11.02;;;;;;;;;;6255018;22;20015;-90
2023/05/10 02:45:11;;;;;;;33.03;10.48;;;;;;;;;;6278107;22;20012;-90
2023/05/10 02:47:37;;;;;;;31.55;11.55;;;;;;;;;;6281511;22;20453;-91
2023/05/10 02:50:04;;;;;;;45.83;10.57;;;;;;;;;;6256161;22;20007;-90
2023/05/10 02:52:35;;;;;;;25.48;10.02;;;;;;;;;;6257613;22;20008;-91
2023/05/10 02:55:20;;;;;;;36.78;10.73;;;;;;;;;;6283771;22;20015;-90
2023/05/10 02:57:55;;;;;;;36.67;11.52;;;;;;;;;;6284724;22;20011;-91
2023/05/10 03:00:22;;;;;;;48.58;14.00;;;;;;;;;;6283130;22;20019;-91
2023/05/10 03:02:54;;;;;;;44.67;13.32;;;;;;;;;;6281790;22;20007;-91
2023/05/10 03:05:21;;;;;;;41.92;12.32;;;;;;;;;;6255448;22;20084;-90
2023/05/10 03:07:49;;;;;;;44.72;13.68;;;;;;;;;;6281100;22;20015;-91
2023/05/10 03:10:15;;;;;;;41.40;12.98;;;;;;;;;;6252983;22;20077;-91
2023/05/10 03:13:06;;;;;;;41.88;13.63;;;;;;;;;;6255509;22;20004;-90
2023/05/10 03:15:53;;;;;;;44.42;14.05;;;;;;;;;;6280868;22;20004;-91
2023/05/10 03:18:23;;;;;;;45.95;15.23;;;;;;;;;;6279365;22;20023;-91
2023/05/10 03:20:51;;;;;;;41.33;13.90;;;;;;;;;;6281175;22;20000;-91
2023/05/10 03:23:27;;;;;;;53.72;15.45;;;;;;;;;;6281452;22;20015;-90
2023/05/10 03:25:54;;;;;;;44.65;13.02;;;;;;;;;;6279172;22;20012;-90
2023/05/10 03:28:24;;;;;;;48.83;16.08;;;;;;;;;;6253615;22;20018;-90
2023/05/10 03:30:52;;;;;;;53.40;15.35;;;;;;;;;;6279307;22;20000;-90
2023/05/10 03:33:19;;;;;;;53.65;16.90;;;;;;;;;;6280249;22;20026;-90
2023/05/10 03:36:14;;;;;;;53.05;16.05;;;;;;;;;;6255199;22;20021;-89
2023/05/10 03:38:32;;;;;;;52.60;16.58;;;;;;;;;;6272062;22;20223;-89
2023/05/10 03:40:59;;;;;;;48.58;15.93;;;;;;;;;;6281647;22;20000;-91
2023/05/10 03:43:41;;;;;;;50.30;16.40;;;;;;;;;;6279881;22;20000;-90
2023/05/10 03:46:07;;;;;;;48.28;14.98;;;;;;;;;;6256838;22;20072;-92
2023/05/10 03:48:33;;;;;;;55.40;15.02;;;;;;;;;;6258698;22;20003;-90
2023/05/10 03:50:59;;;;;;;60.13;14.55;;;;;;;;;;6283122;22;20034;-90
2023/05/10 03:53:46;;;;;;;53.83;17.08;;;;;;;;;;6258606;22;20011;-90
2023/05/10 03:56:12;;;;;;;;;;;;;;;;;;6286955;22;20008;-91
2023/05/10 03:58:38;;;;;;;54.85;15.93;;;;;;;;;;6286876;22;19929;-90
2023/05/10 04:01:06;;;;;;;49.55;13.93;;;;;;;;;;6261693;22;20015;-91
2023/05/10 04:03:38;;;;;;;63.25;17.70;;;;;;;;;;6265735;22;20095;-90
2023/05/10 04:06:08;;;;;;;68.20;19.08;;;;;;;;;;6266183;22;20011;-91
2023/05/10 04:08:38;;;;;;;70.88;18.90;;;;;;;;;;6288621;22;20318;-91
2023/05/10 04:11:06;;;;;;;62.72;17.63;;;;;;;;;;6257560;22;20032;-90
2023/05/10 04:13:33;;;;;;;52.42;15.40;;;;;;;;;;6282924;22;20000;-92
2023/05/10 04:15:59;;;;;;;47.58;13.55;;;;;;;;;;6281756;22;20418;-91
2023/05/10 04:18:26;;;;;;;45.22;12.63;;;;;;;;;;6257800;22;20015;-92
2023/05/10 04:20:53;;;;;;;41.40;11.30;;;;;;;;;;6256795;22;20020;-91
2023/05/10 04:23:36;;;;;;;37.15;11.75;;;;;;;;;;6264226;22;20023;-91
2023/05/10 04:26:11;;;;;;;40.10;10.55;;;;;;;;;;6282072;22;20070;-90
2023/05/10 04:28:38;;;;;;;30.60;10.48;;;;;;;;;;6281612;22;20003;-88
2023/05/10 04:31:27;;;;;;;;;;;;;;;;;;;;;
2023/05/10 04:33:54;;;;;;;21.35;9.07;;;;;;;;;;6279997;22;20117;-90
2023/05/10 04:36:35;;;;;;;30.27;8.88;;;;;;;;;;6259213;22;20007;-90
2023/05/10 04:39:09;;;;;;;22.67;7.50;;;;;;;;;;6284714;22;20037;-89
2023/05/10 04:41:36;;;;;;;22.23;7.65;;;;;;;;;;6257040;22;20303;-90
2023/05/10 04:44:02;;;;;;;21.08;7.10;;;;;;;;;;6280531;22;20010;-90
2023/05/10 04:46:28;;;;;;;28.58;10.05;;;;;;;;;;6254361;22;20016;-90
2023/05/10 04:48:54;;;;;;;18.27;7.28;;;;;;;;;;6256823;22;20030;-90
2023/05/10 04:51:21;;;;;;;21.38;7.50;;;;;;;;;;6256458;22;20012;-90
2023/05/10 04:53:47;;;;;;;21.20;7.50;;;;;;;;;;6253647;22;20000;-90
2023/05/10 04:56:14;;;;;;;19.75;7.82;;;;;;;;;;6255863;22;20034;-90
2023/05/10 04:58:43;;;;;;;18.17;7.47;;;;;;;;;;6255973;22;20007;-90
2023/05/10 05:01:10;;;;;;;23.58;8.18;;;;;;;;;;6256848;22;20011;-90
2023/05/10 05:03:37;;;;;;;24.27;8.80;;;;;;;;;;6281409;22;20070;-90
2023/05/10 05:06:10;;;;;;;11.88;5.68;;;;;;;;;;6281416;22;20014;-90
2023/05/10 05:08:37;;;;;;;16.73;6.60;;;;;;;;;;6255048;22;20015;-90
2023/05/10 05:11:03;;;;;;;17.48;7.43;;;;;;;;;;6259017;22;20095;-91
2023/05/10 05:13:29;;;;;;;12.88;5.88;;;;;;;;;;6255004;22;20460;-90
2023/05/10 05:15:55;;;;;;;18.65;5.38;;;;;;;;;;6257740;22;20011;-92
2023/05/10 05:18:22;;;;;;;12.13;5.75;;;;;;;;;;6280559;22;20371;-90
2023/05/10 05:20:49;;;;;;;17.52;6.28;;;;;;;;;;6256266;22;20022;-90
2023/05/10 05:23:33;;;;;;;15.63;6.78;;;;;;;;;;6258733;22;20011;-90
2023/05/10 05:26:01;;;;;;;16.13;6.68;;;;;;;;;;6289956;22;20022;-90
2023/05/10 05:28:37;;;;;;;12.77;4.85;;;;;;;;;;6259528;22;20008;-89
2023/05/10 05:31:03;;;;;;;;;;;;;;;;;;6280668;22;20008;-91
2023/05/10 05:33:32;;;;;;;14.50;5.80;;;;;;;;;;6280510;22;20374;-90
2023/05/10 05:36:01;;;;;;;11.88;5.70;;;;;;;;;;6256982;22;20061;-88
2023/05/10 05:38:39;;;;;;;14.82;6.00;;;;;;;;;;6279000;22;20019;-89
2023/05/10 05:41:06;;;;;;;19.70;7.15;;;;;;;;;;6254192;22;20012;-89
2023/05/10 05:43:53;;;;;;;15.63;6.45;;;;;;;;;;6254602;22;20008;-89
2023/05/10 05:46:18;;;;;;;18.30;6.97;;;;;;;;;;6278869;22;20070;-89
2023/05/10 05:48:45;;;;;;;14.80;6.55;;;;;;;;;;6253558;22;20063;-89
2023/05/10 05:51:12;;;;;;;9.60;5.32;;;;;;;;;;6253711;22;20033;-90
2023/05/10 05:53:45;;;;;;;12.98;6.65;;;;;;;;;;6257861;22;20031;-89
2023/05/10 05:56:11;;;;;;;14.65;5.80;;;;;;;;;;6280254;22;20025;-87
2023/05/10 05:58:37;;;;;;;16.70;6.28;;;;;;;;;;6281153;22;20011;-88
2023/05/10 06:01:04;;;;;;;15.40;5.68;;;;;;;;;;6278493;22;20031;-88
2023/05/10 06:03:45;;;;;;;10.50;4.55;;;;;;;;;;6279118;22;20046;-90
2023/05/10 06:06:21;;;;;;;21.75;6.25;;;;;;;;;;6252218;22;20429;-89
2023/05/10 06:08:49;;;;;;;11.18;4.75;;;;;;;;;;6260943;22;20012;-90
2023/05/10 06:11:16;;;;;;;10.13;5.13;;;;;;;;;;6283834;22;20058;-90
2023/05/10 06:13:42;;;;;;;9.98;3.58;;;;;;;;;;6256438;22;20015;-89
2023/05/10 06:16:35;;;;;;;10.82;2.97;;;;;;;;;;6284425;22;20065;-89
2023/05/10 06:18:59;;;;;;;3.25;2.38;;;;;;;;;;6279065;22;20015;-90
2023/05/10 06:21:46;;;;;;;4.45;2.03;;;;;;;;;;6282236;22;20007;-89
2023/05/10 06:27:04;;;;;;;4.07;1.73;;;;;;;;;;6240279;22;20012;-89
2023/05/10 06:29:31;;;;;;;4.18;2.08;;;;;;;;;;6280417;22;20039;-89
2023/05/10 06:31:58;;;;;;;6.03;1.75;;;;;;;;;;6252264;22;20019;-90
2023/05/10 06:34:44;;;;;;;3.97;1.85;;;;;;;;;;6253905;22;20011;-89
2023/05/10 06:37:11;;;;;;;6.82;1.58;;;;;;;;;;6252494;22;20004;-89
2023/05/10 06:39:48;;;;;;;3.40;1.90;;;;;;;;;;6279631;22;20007;-90
2023/05/10 06:42:15;;;;;;;6.50;2.85;;;;;;;;;;6278423;22;20003;-89
2023/05/10 06:44:41;;;;;;;16.10;7.10;;;;;;;;;;6253564;22;20064;-89
2023/05/10 06:47:07;;;;;;;10.23;5.00;;;;;;;;;;6251772;22;20015;-90
2023/05/10 06:49:34;;;;;;;25.27;6.82;;;;;;;;;;6253124;22;20505;-89
2023/05/10 06:52:01;;;;;;;22.98;7.07;;;;;;;;;;6278333;22;20007;-90
2023/05/10 06:54:27;;;;;;;26.55;8.68;;;;;;;;;;6252307;22;20011;-90
2023/05/10 06:57:07;;;;;;;25.30;9.25;;;;;;;;;;6256774;22;20071;-90
2023/05/10 06:59:36;;;;;;;20.88;7.82;;;;;;;;;;6279885;22;20011;-91
2023/05/10 07:02:03;;;;;;;32.20;11.10;;;;;;;;;;6280856;22;20030;-90
2023/05/10 07:04:29;;;;;;;8.00;4.05;;;;;;;;;;6282169;22;20015;-90
2023/05/10 07:06:55;;;;;;;30.40;10.30;;;;;;;;;;6256723;22;20012;-93
2023/05/10 07:09:24;;;;;;;36.72;11.52;;;;;;;;;;6255191;22;20031;-92
2023/05/10 07:11:50;;;;;;;39.88;11.15;;;;;;;;;;6256047;22;20004;-89
2023/05/10 07:14:17;;;;;;;27.27;8.25;;;;;;;;;;6256449;22;20042;-89
2023/05/10 07:16:59;;;;;;;34.83;10.65;;;;;;;;;;6281002;22;20007;-90
2023/05/10 07:19:26;;;;;;;35.55;11.07;;;;;;;;;;6256274;22;20007;-89
2023/05/10 07:21:53;;;;;;;32.03;9.45;;;;;;;;;;6281359;22;20018;-90
2023/05/10 07:24:34;;;;;;;29.85;9.55;;;;;;;;;;6255648;22;20022;-90
2023/05/10 07:27:00;;;;;;;30.70;10.05;;;;;;;;;;6280371;22;20062;-89
2023/05/10 07:29:26;;;;;;;31.25;9.93;;;;;;;;;;6260184;22;20008;-89
2023/05/10 07:31:56;;;;;;;30.33;9.35;;;;;;;;;;6254145;22;20012;-90
2023/05/10 07:34:26;;;;;;;19.40;5.82;;;;;;;;;;6255153;22;20258;-89
2023/05/10 07:36:52;;;;;;;19.98;6.72;;;;;;;;;;6256248;22;20015;-90
2023/05/10 07:39:26;;;;;;;16.70;6.28;;;;;;;;;;6284394;22;20008;-90
2023/05/10 07:41:52;;;;;;;13.05;5.40;;;;;;;;;;6261349;22;20016;-89
2023/05/10 07:44:20;;;;;;;14.07;5.20;;;;;;;;;;6257874;22;20050;-92
2023/05/10 07:46:52;;;;;;;9.80;3.90;;;;;;;;;;6260358;22;20099;-90
2023/05/10 07:49:40;;;;;;;15.18;4.47;;;;;;;;;;6265715;22;20008;-91
2023/05/10 07:52:06;;;;;;;13.43;3.85;;;;;;;;;;6281325;22;20000;-90
2023/05/10 07:54:33;;;;;;;6.60;3.83;;;;;;;;;;6284249;22;20542;-90
2023/05/10 07:57:00;;;;;;;8.15;3.70;;;;;;;;;;6259007;22;20011;-90
2023/05/10 07:59:26;;;;;;;10.82;3.38;;;;;;;;;;6281979;22;20004;-90
2023/05/10 08:01:54;;;;;;;9.57;3.75;;;;;;;;;;6282136;22;20011;-90
2023/05/10 08:04:20;;;;;;;8.60;3.78;;;;;;;;;;6256734;22;20038;-90
2023/05/10 08:06:46;;;;;;;6.43;4.05;;;;;;;;;;6256363;22;20115;-91
2023/05/10 08:09:12;;;;;;;9.98;4.03;;;;;;;;;;6254968;22;20007;-90
2023/05/10 08:11:38;;;;;;;12.93;5.57;;;;;;;;;;6256348;22;20499;-91
2023/05/10 08:14:05;;;;;;;12.63;5.43;;;;;;;;;;6259875;22;20023;-90
2023/05/10 08:16:32;;;;;;;10.52;5.63;;;;;;;;;;6258200;22;20024;-90
2023/05/10 08:18:58;;;;;;;9.10;4.60;;;;;;;;;;6284251;22;20062;-90
2023/05/10 08:21:25;;;;;;;11.38;5.18;;;;;;;;;;6260000;22;20012;-91
2023/05/10 08:23:52;;;;;;;16.20;5.82;;;;;;;;;;6287336;22;20011;-89
2023/05/10 08:26:18;;;;;;;10.98;5.40;;;;;;;;;;6285098;22;20407;-91
2023/05/10 08:28:44;;;;;;;21.13;6.82;;;;;;;;;;6264160;22;20008;-91
2023/05/10 08:31:17;;;;;;;20.25;5.50;;;;;;;;;;6261840;22;20375;-91
2023/05/10 08:33:48;;;;;;;17.02;6.50;;;;;;;;;;6260460;22;20004;-91
2023/05/10 08:36:21;;;;;;;12.50;4.93;;;;;;;;;;6288691;22;20031;-91
2023/05/10 08:38:48;;;;;;;9.23;5.03;;;;;;;;;;6285663;22;20014;-90
2023/05/10 08:41:15;;;;;;;8.70;3.75;;;;;;;;;;6284283;22;20418;-91
2023/05/10 08:44:09;;;;;;;8.55;4.28;;;;;;;;;;6262640;22;19995;-90
2023/05/10 08:46:39;;;;;;;12.27;5.65;;;;;;;;;;6292979;22;20013;-93
2023/05/10 08:49:10;;;;;;;8.85;4.53;;;;;;;;;;6286418;22;20003;-92
2023/05/10 08:51:42;;;;;;;12.52;5.97;;;;;;;;;;6285165;22;20026;-93
2023/05/10 08:54:10;;;;;;;10.05;4.97;;;;;;;;;;6284985;22;20011;-92
2023/05/10 08:56:40;;;;;;;17.38;6.35;;;;;;;;;;6261157;22;20074;-92
2023/05/10 08:59:06;;;;;;;10.95;5.20;;;;;;;;;;6264970;22;20086;-92
2023/05/10 09:01:33;;;;;;;11.40;5.30;;;;;;;;;;6288317;22;20012;-92
2023/05/10 09:03:59;;;;;;;13.85;4.82;;;;;;;;;;6286756;22;20022;-93
2023/05/10 09:06:26;;;;;;;13.05;4.55;;;;;;;;;;6262674;22;20042;-92
2023/05/10 09:08:52;;;;;;;16.63;4.20;;;;;;;;;;6284525;22;20244;-92
2023/05/10 09:11:28;;;;;;;10.65;4.85;;;;;;;;;;6260800;22;20053;-92
2023/05/10 09:13:55;;;;;;;;;;;;;;;;;;6295520;22;20000;-92
2023/05/10 09:16:23;;;;;;;9.98;4.38;;;;;;;;;;6291747;22;19891;-93
2023/05/10 09:18:49;;;;;;;10.73;4.88;;;;;;;;;;6263402;22;20193;-94
2023/05/10 09:21:16;;;;;;;11.23;4.32;;;;;;;;;;6286084;22;20018;-94
2023/05/10 09:23:46;;;;;;;11.63;5.10;;;;;;;;;;6283603;22;20012;-93
2023/05/10 09:26:23;;;;;;;7.90;4.00;;;;;;;;;;6287373;22;19992;-94
2023/05/10 09:29:01;;;;;;;10.35;4.63;;;;;;;;;;6263914;22;19995;-93
2023/05/10 09:31:47;;;;;;;6.47;3.85;;;;;;;;;;6288245;22;20059;-93
2023/05/10 09:34:17;;;;;;;9.68;5.60;;;;;;;;;;6290594;22;19984;-94
2023/05/10 09:36:54;;;;;;;8.63;4.82;;;;;;;;;;6285104;22;20008;-92
2023/05/10 09:39:21;;;;;;;16.35;6.22;;;;;;;;;;6283672;22;20018;-93
2023/05/10 09:41:55;;;;;;;12.18;5.93;;;;;;;;;;6286463;22;20018;-92
2023/05/10 09:44:22;;;;;;;11.63;5.13;;;;;;;;;;6267859;22;20012;-92
2023/05/10 09:46:50;;;;;;;10.68;4.97;;;;;;;;;;6266268;22;19988;-93
2023/05/10 09:49:17;;;;;;;10.38;5.53;;;;;;;;;;6268892;22;20015;-92
2023/05/10 09:52:02;;;;;;;14.32;5.68;;;;;;;;;;6270743;22;20011;-93
2023/05/10 09:54:31;;;;;;;10.25;5.57;;;;;;;;;;6284068;22;20050;-92
2023/05/10 10:00:21;;;;;;;12.05;4.75;;;;;;;;;;6224364;22;20038;-92
2023/05/10 10:02:59;;;;;;;;;;;;;;;;;;;;;
2023/05/10 10:05:45;;;;;;;9.93;4.80;;;;;;;;;;6259607;22;20008;-94
2023/05/10 10:08:12;;;;;;;12.05;4.78;;;;;;;;;;6285647;22;20027;-93
2023/05/10 10:10:46;;;;;;;12.32;4.70;;;;;;;;;;6283440;22;20007;-93
2023/05/10 10:13:13;;;;;;;8.15;4.70;;;;;;;;;;6288612;22;20448;-93
2023/05/10 10:15:43;;;;;;;10.52;4.57;;;;;;;;;;6291705;22;20003;-93
2023/05/10 10:18:19;;;;;;;7.15;4.20;;;;;;;;;;6289251;22;19999;-93
2023/05/10 10:20:45;;;;;;;;;;;;;;;;;;6291627;22;20199;-94
2023/05/10 10:23:11;;;;;;;6.30;3.15;;;;;;;;;;6285992;22;19910;-93
2023/05/10 10:25:41;;;;;;;6.85;3.72;;;;;;;;;;6261000;22;20039;-94
2023/05/10 10:28:13;;;;;;;4.20;2.90;;;;;;;;;;6288728;22;20014;-93
2023/05/10 10:30:39;;;;;;;5.20;3.25;;;;;;;;;;6288088;22;20085;-92
2023/05/10 10:33:40;;;;;;;9.13;3.25;;;;;;;;;;6286901;22;20088;-93
2023/05/10 10:36:07;;;;;;;4.20;2.92;;;;;;;;;;6288460;22;20010;-94
2023/05/10 10:38:59;;;;;;;4.60;2.53;;;;;;;;;;6288176;22;20008;-93
2023/05/10 10:41:42;;;;;;;5.13;3.13;;;;;;;;;;6267270;22;20528;-94
2023/05/10 10:44:41;;;;;;;6.00;2.90;;;;;;;;;;6284513;22;20015;-93
2023/05/10 10:47:24;;;;;;;3.78;2.88;;;;;;;;;;6283655;22;20449;-94
2023/05/10 10:50:12;;;;;;;5.88;3.15;;;;;;;;;;6282184;22;20336;-94
2023/05/10 10:52:40;;;;;;;4.90;2.97;;;;;;;;;;6258820;22;20035;-93
2023/05/10 10:55:12;;;;;;;4.35;2.83;;;;;;;;;;6285416;22;20014;-93
2023/05/10 10:57:41;;;;;;;5.40;3.17;;;;;;;;;;6285277;22;20397;-94
2023/05/10 11:00:37;;;;;;;4.38;2.95;;;;;;;;;;6286806;22;20011;-93
2023/05/10 11:03:18;;;;;;;4.97;3.22;;;;;;;;;;6258936;22;19996;-93
2023/05/10 11:05:44;;;;;;;7.47;4.28;;;;;;;;;;6292832;22;19993;-93
2023/05/10 11:08:18;;;;;;;6.53;4.18;;;;;;;;;;6287516;22;20007;-93
2023/05/10 11:11:24;;;;;;;6.40;4.40;;;;;;;;;;6287662;22;20004;-95
2023/05/10 11:13:51;;;;;;;8.88;3.85;;;;;;;;;;6141908;23;20028;-90
2023/05/10 11:16:20;;;;;;;8.70;4.35;;;;;;;;;;6231636;22;20046;-92
2023/05/10 11:19:03;;;;;;;6.68;4.43;;;;;;;;;;6280074;22;20031;-91
2023/05/10 11:21:33;;;;;;;12.90;5.20;;;;;;;;;;6279518;22;20008;-91
2023/05/10 11:24:05;;;;;;;8.57;5.15;;;;;;;;;;6281759;22;20011;-91
2023/05/10 11:26:35;;;;;;;9.35;5.00;;;;;;;;;;6257392;22;20081;-91
2023/05/10 11:29:04;;;;;;;14.48;6.20;;;;;;;;;;6280465;22;20079;-90
2023/05/10 11:31:30;;;;;;;12.95;7.50;;;;;;;;;;6256258;22;20028;-90
2023/05/10 11:33:58;;;;;;;12.90;6.60;;;;;;;;;;6281072;22;20004;-90
2023/05/10 11:36:27;;;;;;;9.98;5.47;;;;;;;;;;6281127;22;20110;-90
2023/05/10 11:38:53;;;;;;;10.32;6.00;;;;;;;;;;6280939;22;20014;-92
2023/05/10 11:44:06;;;;;;;12.63;6.20;;;;;;;;;;6283066;22;20022;-89
2023/05/10 11:46:35;;;;;;;9.70;6.47;;;;;;;;;;6281188;22;20007;-91
2023/05/10 11:49:03;;;;;;;11.80;6.93;;;;;;;;;;6265328;22;20008;-91
2023/05/10 11:51:33;;;;;;;17.42;6.95;;;;;;;;;;6287235;22;20025;-91
2023/05/10 11:54:05;;;;;;;8.50;6.07;;;;;;;;;;6280534;22;20004;-93
2023/05/10 11:56:33;;;;;;;14.13;7.88;;;;;;;;;;6256857;22;20008;-92
2023/05/10 11:59:08;;;;;;;11.93;7.05;;;;;;;;;;6279826;22;20043;-92
2023/05/10 12:01:35;;;;;;;11.43;6.78;;;;;;;;;;6282049;22;20353;-92
2023/05/10 12:04:01;;;;;;;13.82;6.50;;;;;;;;;;6284252;22;20345;-92
2023/05/10 12:06:30;;;;;;;15.48;6.55;;;;;;;;;;6255633;22;20004;-92
2023/05/10 12:09:00;;;;;;;16.17;7.03;;;;;;;;;;6281864;22;20064;-91
2023/05/10 12:11:30;;;;;;;11.48;6.35;;;;;;;;;;6284008;22;20083;-92
2023/05/10 12:14:15;;;;;;;12.48;7.25;;;;;;;;;;6264070;22;20076;-91
2023/05/10 12:16:43;;;;;;;15.52;7.00;;;;;;;;;;6261426;22;20016;-92
2023/05/10 12:19:16;;;;;;;13.98;7.35;;;;;;;;;;6284814;22;20376;-92
2023/05/10 12:21:55;;;;;;;11.43;6.55;;;;;;;;;;6263921;22;20085;-91
2023/05/10 12:24:34;;;;;;;16.75;7.32;;;;;;;;;;6284345;22;20097;-92
2023/05/10 12:27:09;;;;;;;18.20;7.10;;;;;;;;;;6286391;22;20015;-91
2023/05/10 12:29:35;;;;;;;16.23;7.03;;;;;;;;;;6284363;22;20011;-91
2023/05/10 12:32:05;;;;;;;13.75;7.43;;;;;;;;;;6261029;22;20012;-91
2023/05/10 12:34:33;;;;;;;14.02;7.93;;;;;;;;;;6259107;22;20007;-92
2023/05/10 12:37:11;;;;;;;12.75;8.07;;;;;;;;;;6262669;22;20011;-92
2023/05/10 12:39:47;;;;;;;17.40;8.20;;;;;;;;;;6262928;22;20011;-93
2023/05/10 12:42:13;;;;;;;14.82;8.40;;;;;;;;;;6288306;22;20061;-94
2023/05/10 12:44:49;;;;;;;17.65;9.32;;;;;;;;;;6264695;22;20047;-93
2023/05/10 12:47:17;;;;;;;15.15;8.55;;;;;;;;;;6291925;22;20069;-93
2023/05/10 12:49:44;;;;;;;17.95;8.25;;;;;;;;;;6270090;22;19995;-92
2023/05/10 12:52:13;;;;;;;16.33;8.85;;;;;;;;;;6273255;22;20010;-93
2023/05/10 12:54:40;;;;;;;13.93;7.88;;;;;;;;;;6272190;22;20106;-93
2023/05/10 12:57:06;;;;;;;17.60;8.30;;;;;;;;;;6271432;22;20011;-93
2023/05/10 12:59:32;;;;;;;15.30;8.25;;;;;;;;;;6272878;22;20012;-93
2023/05/10 13:01:58;;;;;;;13.90;8.38;;;;;;;;;;6267906;22;20006;-92
2023/05/10 13:04:25;;;;;;;12.90;8.10;;;;;;;;;;6292582;22;20058;-92
2023/05/10 13:06:51;;;;;;;14.48;8.50;;;;;;;;;;6266104;22;20080;-93
2023/05/10 13:09:17;;;;;;;13.55;8.00;;;;;;;;;;6289247;22;19999;-93
2023/05/10 13:11:48;;;;;;;15.00;7.25;;;;;;;;;;6285796;22;20000;-93
2023/05/10 13:14:15;;;;;;;17.13;8.05;;;;;;;;;;6257739;22;20018;-93
2023/05/10 13:16:44;;;;;;;11.75;7.05;;;;;;;;;;6283480;22;20011;-93
2023/05/10 13:19:19;;;;;;;11.80;6.85;;;;;;;;;;6281943;22;20019;-92
2023/05/10 13:21:45;;;;;;;9.95;6.38;;;;;;;;;;6282833;22;20062;-92
2023/05/10 13:24:13;;;;;;;10.13;6.55;;;;;;;;;;6283400;22;20024;-93
2023/05/10 13:26:46;;;;;;;11.45;6.75;;;;;;;;;;6281709;22;20043;-92
2023/05/10 13:29:38;;;;;;;11.73;6.68;;;;;;;;;;6280846;22;20003;-94
2023/05/10 13:32:07;;;;;;;12.93;6.85;;;;;;;;;;6282817;22;19999;-93
2023/05/10 13:34:44;;;;;;;9.55;6.07;;;;;;;;;;6257720;22;20003;-93
2023/05/10 13:37:10;;;;;;;12.55;6.60;;;;;;;;;;6256392;22;20018;-93
2023/05/10 13:39:46;;;;;;;13.35;7.22;;;;;;;;;;6256615;22;20027;-92
2023/05/10 13:42:21;;;;;;;12.52;7.70;;;;;;;;;;6283779;22;20012;-95
2023/05/10 13:44:48;;;;;;;11.70;7.28;;;;;;;;;;6261348;22;20145;-94
2023/05/10 13:47:22;;;;;;;14.88;6.43;;;;;;;;;;6260050;22;20022;-94
2023/05/10 13:49:48;;;;;;;12.25;7.15;;;;;;;;;;6265148;22;20030;-93
2023/05/10 13:52:18;;;;;;;12.43;6.38;;;;;;;;;;6261118;22;20011;-93
2023/05/10 13:54:44;;;;;;;10.93;6.28;;;;;;;;;;6282260;22;20000;-92
2023/05/10 13:57:13;;;;;;;13.77;6.40;;;;;;;;;;6280117;22;20014;-93
2023/05/10 13:59:40;;;;;;;14.30;6.38;;;;;;;;;;6255660;22;20015;-93
2023/05/10 14:02:12;;;;;;;10.55;6.50;;;;;;;;;;6255944;22;20012;-93
2023/05/10 14:05:10;;;;;;;11.23;6.10;;;;;;;;;;6256700;22;20037;-93
2023/05/10 14:07:35;;;;;;;10.02;5.90;;;;;;;;;;6280600;22;20045;-94
2023/05/10 14:10:02;;;;;;;11.18;6.53;;;;;;;;;;6287041;22;20003;-92
2023/05/10 14:12:41;;;;;;;13.02;7.30;;;;;;;;;;6263054;22;20011;-94
2023/05/10 14:15:20;;;;;;;11.65;6.80;;;;;;;;;;6286316;22;20038;-93
2023/05/10 14:18:07;;;;;;;11.52;6.95;;;;;;;;;;6289332;22;20018;-93
2023/05/10 14:20:45;;;;;;;12.75;7.43;;;;;;;;;;6265055;22;20011;-93
2023/05/10 14:23:14;;;;;;;10.68;6.75;;;;;;;;;;6265826;22;20058;-93
2023/05/10 14:25:47;;;;;;;12.25;6.53;;;;;;;;;;6262306;22;20012;-93
2023/05/10 14:28:40;;;;;;;16.75;7.82;;;;;;;;;;6289164;22;20019;-92
2023/05/10 14:31:09;;;;;;;12.20;6.82;;;;;;;;;;6288427;22;20010;-94
2023/05/10 14:33:42;;;;;;;11.98;6.82;;;;;;;;;;6284675;22;20003;-94
2023/05/10 14:36:28;;;;;;;13.90;6.78;;;;;;;;;;6289203;22;20027;-93
2023/05/10 14:39:10;;;;;;;11.98;6.30;;;;;;;;;;6286593;22;20003;-93
2023/05/10 14:42:04;;;;;;;12.93;7.32;;;;;;;;;;6289465;22;20008;-93
2023/05/10 14:44:55;;;;;;;8.98;6.07;;;;;;;;;;6286036;22;20011;-93
2023/05/10 14:47:25;;;;;;;11.65;6.75;;;;;;;;;;6137325;23;20064;-94
2023/05/10 14:49:51;;;;;;;15.50;7.47;;;;;;;;;;6245736;22;20003;-94
2023/05/10 14:52:17;;;;;;;12.10;7.05;;;;;;;;;;6257597;22;20003;-93
2023/05/10 14:54:44;;;;;;;11.10;7.28;;;;;;;;;;6282798;22;20004;-93
2023/05/10 14:57:10;;;;;;;12.55;7.57;;;;;;;;;;6284554;22;20007;-93
2023/05/10 14:59:44;;;;;;;13.73;7.63;;;;;;;;;;6258586;22;20114;-93
2023/05/10 15:02:16;;;;;;;11.63;7.85;;;;;;;;;;6260245;22;20091;-93
2023/05/10 15:04:43;;;;;;;17.23;8.48;;;;;;;;;;6258656;22;20020;-94
2023/05/10 15:07:14;;;;;;;15.75;7.68;;;;;;;;;;6258393;22;20011;-95